createdAt,value
2018-01-14T00:01:13.769Z,-0.12
2018-01-14T00:03:41.411Z,-0.10
2018-01-14T00:06:09.082Z,-0.09
2018-01-14T00:08:36.678Z,-0.19
2018-01-14T00:11:04.379Z,-0.19
2018-01-14T00:13:31.982Z,-0.24
2018-01-14T00:15:59.635Z,-0.27
2018-01-14T00:18:27.234Z,-0.35
2018-01-14T00:20:54.899Z,-0.41
2018-01-14T00:23:22.487Z,-0.52
2018-01-14T00:25:50.107Z,-0.57
2018-01-14T00:28:17.696Z,-0.52
2018-01-14T00:30:45.647Z,-0.55
2018-01-14T00:33:13.241Z,-0.58
2018-01-14T00:35:40.871Z,-0.56
2018-01-14T00:38:08.463Z,-0.58
2018-01-14T00:40:36.047Z,-0.67
2018-01-14T00:43:03.646Z,-0.71
2018-01-14T00:45:31.239Z,-0.68
2018-01-14T00:47:58.862Z,-0.71
2018-01-14T00:50:26.562Z,-0.73
2018-01-14T00:52:54.192Z,-0.73
2018-01-14T00:55:21.803Z,-0.86
2018-01-14T00:57:49.440Z,-0.92
2018-01-14T01:00:17.026Z,-0.95
2018-01-14T01:02:44.653Z,-0.90
2018-01-14T01:05:12.239Z,-0.92
2018-01-14T01:07:39.840Z,-0.96
2018-01-14T01:10:07.474Z,-1.05
2018-01-14T01:12:35.156Z,-1.09
2018-01-14T01:15:02.750Z,-1.05
2018-01-14T01:17:30.340Z,-1.05
2018-01-14T01:19:57.924Z,-1.10
2018-01-14T01:22:25.607Z,-1.16
2018-01-14T01:24:53.299Z,-1.20
2018-01-14T01:27:20.938Z,-1.09
2018-01-14T01:29:48.534Z,-1.16
2018-01-14T01:32:16.588Z,-1.28
2018-01-14T01:34:44.225Z,-1.30
2018-01-14T01:37:11.812Z,-1.32
2018-01-14T01:39:39.399Z,-1.33
2018-01-14T01:42:06.982Z,-1.34
2018-01-14T01:44:34.572Z,-1.35
2018-01-14T01:47:02.334Z,-1.42
2018-01-14T01:49:30.051Z,-1.40
2018-01-14T01:51:57.635Z,-1.45
2018-01-14T01:54:25.295Z,-1.44
2018-01-14T01:56:52.920Z,-1.41
2018-01-14T01:59:20.597Z,-1.47
2018-01-14T02:01:48.227Z,-1.38
2018-01-14T02:04:15.820Z,-1.44
2018-01-14T02:06:43.440Z,-1.48
2018-01-14T02:09:11.026Z,-1.53
2018-01-14T02:11:38.615Z,-1.51
2018-01-14T02:14:06.328Z,-1.42
2018-01-14T02:16:33.911Z,-1.53
2018-01-14T02:19:01.539Z,-1.52
2018-01-14T02:21:29.152Z,-1.60
2018-01-14T02:23:56.740Z,-1.58
2018-01-14T02:26:24.359Z,-1.64
2018-01-14T02:28:51.938Z,-1.65
2018-01-14T02:31:19.565Z,-1.62
2018-01-14T02:33:47.201Z,-1.58
2018-01-14T02:36:14.804Z,-1.66
2018-01-14T02:38:42.682Z,-1.60
2018-01-14T02:41:10.352Z,-1.64
2018-01-14T02:43:37.931Z,-1.66
2018-01-14T02:46:05.579Z,-1.66
2018-01-14T02:48:33.167Z,-1.64
2018-01-14T02:51:00.782Z,-1.68
2018-01-14T02:53:28.372Z,-1.67
2018-01-14T02:55:55.986Z,-1.73
2018-01-14T02:58:23.599Z,-1.64
2018-01-14T03:00:51.229Z,-1.66
2018-01-14T03:03:18.822Z,-1.74
2018-01-14T03:05:46.473Z,-1.70
2018-01-14T03:08:14.113Z,-1.79
2018-01-14T03:10:41.708Z,-1.84
2018-01-14T03:13:09.360Z,-1.92
2018-01-14T03:15:37.144Z,-1.94
2018-01-14T03:18:04.765Z,-1.98
2018-01-14T03:20:32.390Z,-1.87
2018-01-14T03:22:59.984Z,-1.90
2018-01-14T03:25:27.617Z,-1.80
2018-01-14T03:27:55.211Z,-1.87
2018-01-14T03:30:22.806Z,-1.84
2018-01-14T03:32:50.397Z,-1.85
2018-01-14T03:35:18.007Z,-1.87
2018-01-14T03:37:45.813Z,-1.91
2018-01-14T03:40:13.407Z,-1.84
2018-01-14T03:42:41.024Z,-1.82
2018-01-14T03:45:08.696Z,-1.93
2018-01-14T03:47:36.295Z,-1.96
2018-01-14T03:50:03.885Z,-2.00
2018-01-14T03:52:31.475Z,-1.94
2018-01-14T03:54:59.067Z,-2.02
2018-01-14T03:57:26.655Z,-1.95
2018-01-14T03:59:54.239Z,-2.01
2018-01-14T04:02:21.857Z,-1.96
2018-01-14T04:04:49.482Z,-2.04
2018-01-14T04:07:17.083Z,-2.00
2018-01-14T04:09:44.667Z,-1.99
2018-01-14T04:12:12.247Z,-2.08
2018-01-14T04:14:39.832Z,-2.04
2018-01-14T04:17:07.415Z,-2.14
2018-01-14T04:19:35.007Z,-2.06
2018-01-14T04:22:02.594Z,-2.08
2018-01-14T04:24:30.244Z,-2.11
2018-01-14T04:26:57.826Z,-2.11
2018-01-14T04:29:25.533Z,-2.14
2018-01-14T04:31:53.131Z,-2.19
2018-01-14T04:34:20.758Z,-2.21
2018-01-14T04:36:48.351Z,-2.13
2018-01-14T04:39:15.984Z,-2.16
2018-01-14T04:41:43.574Z,-2.16
2018-01-14T04:44:11.163Z,-2.20
2018-01-14T04:46:38.746Z,-2.20
2018-01-14T04:49:06.331Z,-2.17
2018-01-14T04:51:33.958Z,-2.17
2018-01-14T04:54:01.543Z,-2.08
2018-01-14T04:56:29.365Z,-2.18
2018-01-14T04:58:57.013Z,-2.18
2018-01-14T05:01:24.670Z,-2.26
2018-01-14T05:03:52.394Z,-2.24
2018-01-14T05:06:20.021Z,-2.29
2018-01-14T05:08:47.696Z,-2.28
2018-01-14T05:11:15.326Z,-2.28
2018-01-14T05:13:42.906Z,-2.25
2018-01-14T05:16:10.491Z,-2.21
2018-01-14T05:18:38.071Z,-2.26
2018-01-14T05:21:05.659Z,-2.25
2018-01-14T05:23:33.246Z,-2.28
2018-01-14T05:26:01.022Z,-2.36
2018-01-14T05:28:28.607Z,-2.38
2018-01-14T05:30:56.193Z,-2.35
2018-01-14T05:33:23.808Z,-2.38
2018-01-14T05:35:51.391Z,-2.40
2018-01-14T05:38:19.020Z,-2.36
2018-01-14T05:40:46.639Z,-2.38
2018-01-14T05:43:14.223Z,-2.39
2018-01-14T05:45:41.844Z,-2.30
2018-01-14T05:48:09.527Z,-2.31
2018-01-14T05:50:37.182Z,-2.31
2018-01-14T05:53:04.769Z,-2.27
2018-01-14T05:55:32.387Z,-2.35
2018-01-14T05:57:59.982Z,-2.39
2018-01-14T06:00:27.639Z,-2.35
2018-01-14T06:02:55.219Z,-2.38
2018-01-14T06:05:22.954Z,-2.31
2018-01-14T06:07:50.539Z,-2.35
2018-01-14T06:10:18.161Z,-2.39
2018-01-14T06:12:45.747Z,-2.35
2018-01-14T06:15:13.399Z,-2.39
2018-01-14T06:17:40.991Z,-2.42
2018-01-14T06:20:08.609Z,-2.42
2018-01-14T06:22:36.435Z,-2.42
2018-01-14T06:25:04.150Z,-2.44
2018-01-14T06:27:31.815Z,-2.50
2018-01-14T06:29:59.481Z,-2.52
2018-01-14T06:32:27.148Z,-2.52
2018-01-14T06:34:54.734Z,-2.52
2018-01-14T06:37:22.351Z,-2.56
2018-01-14T06:39:49.978Z,-2.54
2018-01-14T06:42:17.599Z,-2.60
2018-01-14T06:44:45.258Z,-2.61
2018-01-14T06:47:12.879Z,-2.62
2018-01-14T06:49:40.507Z,-2.60
2018-01-14T06:52:08.105Z,-2.63
2018-01-14T06:54:35.732Z,-2.64
2018-01-14T06:57:03.470Z,-2.63
2018-01-14T06:59:31.098Z,-2.69
2018-01-14T07:01:58.726Z,-2.65
2018-01-14T07:04:26.340Z,-2.65
2018-01-14T07:06:53.930Z,-2.68
2018-01-14T07:09:21.519Z,-2.73
2018-01-14T07:11:49.207Z,-2.72
2018-01-14T07:14:16.865Z,-2.71
2018-01-14T07:16:44.564Z,-2.70
2018-01-14T07:19:12.269Z,-2.67
2018-01-14T07:21:39.859Z,-2.66
2018-01-14T07:24:07.483Z,-2.68
2018-01-14T07:26:35.087Z,-2.62
2018-01-14T07:29:02.780Z,-2.52
2018-01-14T07:31:30.449Z,-2.56
2018-01-14T07:33:58.074Z,-2.50
2018-01-14T07:36:25.730Z,-2.48
2018-01-14T07:38:53.324Z,-2.46
2018-01-14T07:41:20.947Z,-2.53
2018-01-14T07:43:48.652Z,-2.39
2018-01-14T07:46:16.318Z,-2.42
2018-01-14T07:48:43.903Z,-2.24
2018-01-14T07:51:11.485Z,-2.29
2018-01-14T07:53:39.171Z,-2.18
2018-01-14T07:56:06.823Z,-2.11
2018-01-14T07:58:34.409Z,-2.09
2018-01-14T08:01:02.122Z,-1.99
2018-01-14T08:03:29.711Z,-1.99
2018-01-14T08:05:57.293Z,-1.93
2018-01-14T08:08:24.921Z,-1.94
2018-01-14T08:10:52.508Z,-1.91
2018-01-14T08:13:20.208Z,-1.87
2018-01-14T08:15:47.911Z,-1.83
2018-01-14T08:18:15.494Z,-1.75
2018-01-14T08:20:43.172Z,-1.70
2018-01-14T08:23:10.784Z,-1.63
2018-01-14T08:25:38.547Z,-1.66
2018-01-14T08:28:06.178Z,-1.57
2018-01-14T08:30:33.809Z,-1.56
2018-01-14T08:33:01.507Z,-1.49
2018-01-14T08:35:29.175Z,-1.44
2018-01-14T08:37:56.759Z,-1.35
2018-01-14T08:40:24.350Z,-1.34
2018-01-14T08:42:51.947Z,-1.34
2018-01-14T08:45:24.165Z,-1.19
2018-01-14T08:47:53.156Z,-1.10
2018-01-14T08:50:20.741Z,-1.07
2018-01-14T08:52:48.350Z,-1.00
2018-01-14T08:55:15.949Z,-1.00
2018-01-14T08:57:43.545Z,-0.87
2018-01-14T09:00:11.126Z,-0.72
2018-01-14T09:02:38.751Z,-0.58
2018-01-14T09:05:07.500Z,-0.36
2018-01-14T09:07:35.442Z,-0.41
2018-01-14T09:10:03.078Z,-0.28
2018-01-14T09:12:30.713Z,-0.14
2018-01-14T09:14:58.332Z,0.02
2018-01-14T09:17:25.950Z,0.15
2018-01-14T09:19:53.542Z,0.10
2018-01-14T09:22:21.322Z,0.23
2018-01-14T09:24:49.798Z,0.36
2018-01-14T09:27:17.428Z,0.31
2018-01-14T09:29:45.038Z,0.35
2018-01-14T09:32:12.684Z,0.50
2018-01-14T09:34:40.342Z,0.46
2018-01-14T09:37:07.977Z,0.55
2018-01-14T09:39:35.602Z,0.58
2018-01-14T09:42:03.182Z,0.62
2018-01-14T09:44:31.458Z,0.63
2018-01-14T09:46:59.105Z,0.66
2018-01-14T09:49:26.682Z,0.56
2018-01-14T09:51:54.376Z,0.51
2018-01-14T09:54:22.064Z,0.56
2018-01-14T09:56:49.735Z,0.44
2018-01-14T09:59:17.318Z,0.53
2018-01-14T10:01:45.058Z,0.53
2018-01-14T10:04:12.764Z,0.60
2018-01-14T10:06:40.378Z,0.63
2018-01-14T10:09:07.972Z,0.63
2018-01-14T10:11:35.606Z,0.76
2018-01-14T10:14:03.279Z,0.66
2018-01-14T10:16:31.027Z,0.69
2018-01-14T10:18:58.626Z,0.66
2018-01-14T10:21:26.260Z,0.62
2018-01-14T10:23:54.812Z,0.75
2018-01-14T10:26:22.432Z,0.78
2018-01-14T10:28:50.019Z,0.71
2018-01-14T10:31:17.651Z,0.76
2018-01-14T10:33:45.292Z,0.92
2018-01-14T10:36:12.882Z,0.87
2018-01-14T10:38:40.504Z,0.91
2018-01-14T10:41:08.086Z,0.91
2018-01-14T10:43:37.729Z,0.93
2018-01-14T10:46:05.410Z,1.00
2018-01-14T10:48:33.114Z,0.98
2018-01-14T10:51:00.779Z,1.05
2018-01-14T10:53:28.395Z,1.06
2018-01-14T10:55:55.974Z,1.09
2018-01-14T10:58:24.542Z,1.14
2018-01-14T11:00:57.614Z,1.12
2018-01-14T11:03:25.199Z,1.11
2018-01-14T11:05:52.791Z,1.16
2018-01-14T11:08:20.452Z,1.12
2018-01-14T11:10:48.034Z,1.08
2018-01-14T11:13:15.613Z,1.24
2018-01-14T11:15:43.476Z,1.24
2018-01-14T11:18:11.071Z,1.16
2018-01-14T11:20:38.692Z,1.28
2018-01-14T11:23:06.272Z,1.20
2018-01-14T11:25:33.964Z,1.10
2018-01-14T11:28:01.544Z,1.21
2018-01-14T11:30:29.160Z,1.08
2018-01-14T11:32:56.976Z,1.06
2018-01-14T11:35:24.644Z,1.21
2018-01-14T11:37:52.302Z,1.22
2018-01-14T11:40:19.880Z,1.29
2018-01-14T11:42:47.540Z,1.20
2018-01-14T11:45:15.175Z,1.24
2018-01-14T11:47:42.750Z,1.36
2018-01-14T11:50:10.370Z,1.35
2018-01-14T11:52:37.995Z,1.35
2018-01-14T11:55:05.574Z,1.31
2018-01-14T11:57:33.151Z,1.39
2018-01-14T12:00:00.735Z,1.27
2018-01-14T12:02:28.331Z,1.29
2018-01-14T12:04:55.996Z,1.32
2018-01-14T12:07:23.647Z,1.48
2018-01-14T12:09:51.699Z,1.37
2018-01-14T12:12:19.629Z,1.36
2018-01-14T12:14:47.298Z,1.43
2018-01-14T12:17:14.880Z,1.34
2018-01-14T12:19:42.491Z,1.43
2018-01-14T12:22:10.070Z,1.38
2018-01-14T12:24:37.700Z,1.18
2018-01-14T12:27:05.279Z,1.14
2018-01-14T12:29:33.039Z,1.31
2018-01-14T12:32:00.711Z,1.36
2018-01-14T12:34:41.043Z,1.38
2018-01-14T12:37:08.622Z,1.52
2018-01-14T12:39:36.274Z,1.63
2018-01-14T12:42:03.886Z,1.53
2018-01-14T12:44:31.470Z,1.42
2018-01-14T12:46:59.161Z,1.35
2018-01-14T12:49:26.743Z,1.45
2018-01-14T12:51:54.363Z,1.41
2018-01-14T12:54:22.017Z,1.47
2018-01-14T12:56:49.702Z,1.43
2018-01-14T12:59:17.338Z,1.43
2018-01-14T13:01:44.963Z,1.35
2018-01-14T13:04:12.550Z,1.44
2018-01-14T13:06:40.227Z,1.53
2018-01-14T13:09:07.806Z,1.46
2018-01-14T13:11:35.403Z,1.42
2018-01-14T13:14:03.048Z,1.36
2018-01-14T13:16:30.643Z,1.24
2018-01-14T13:18:58.350Z,1.17
2018-01-14T13:21:25.931Z,1.15
2018-01-14T13:23:53.620Z,1.19
2018-01-14T13:26:21.347Z,1.08
2018-01-14T13:28:49.052Z,1.04
2018-01-14T13:31:16.639Z,1.07
2018-01-14T13:33:44.307Z,1.18
2018-01-14T13:36:11.921Z,1.05
2018-01-14T13:38:39.513Z,0.88
2018-01-14T13:41:07.186Z,0.86
2018-01-14T13:43:34.928Z,0.81
2018-01-14T13:46:02.514Z,0.79
2018-01-14T13:48:30.390Z,0.80
2018-01-14T13:50:58.034Z,0.89
2018-01-14T13:53:25.743Z,0.78
2018-01-14T13:55:53.547Z,0.88
2018-01-14T13:58:21.247Z,0.70
2018-01-14T14:00:48.863Z,0.79
2018-01-14T14:03:16.638Z,0.66
2018-01-14T14:05:44.261Z,0.63
2018-01-14T14:08:11.955Z,0.58
2018-01-14T14:10:39.608Z,0.48
2018-01-14T14:13:07.819Z,0.38
2018-01-14T14:15:35.423Z,0.47
2018-01-14T14:18:03.118Z,0.46
2018-01-14T14:20:30.867Z,0.47
2018-01-14T14:22:58.500Z,0.49
2018-01-14T14:25:26.103Z,0.39
2018-01-14T14:27:53.995Z,0.50
2018-01-14T14:30:21.587Z,0.31
2018-01-14T14:32:49.176Z,0.25
2018-01-14T14:35:16.774Z,0.31
2018-01-14T14:37:44.404Z,0.22
2018-01-14T14:40:12.066Z,0.17
2018-01-14T14:42:39.654Z,0.13
2018-01-14T14:45:07.388Z,0.18
2018-01-14T14:47:35.062Z,0.14
2018-01-14T14:50:02.714Z,0.08
2018-01-14T14:52:30.790Z,-0.08
2018-01-14T14:54:58.528Z,-0.02
2018-01-14T14:57:26.119Z,-0.05
2018-01-14T14:59:53.792Z,-0.17
2018-01-14T15:02:21.387Z,-0.17
2018-01-14T15:04:48.982Z,-0.21
2018-01-14T15:07:16.575Z,-0.21
2018-01-14T15:09:44.187Z,-0.25
2018-01-14T15:12:11.780Z,-0.40
2018-01-14T15:14:39.745Z,-0.47
2018-01-14T15:17:07.350Z,-0.48
2018-01-14T15:19:34.942Z,-0.54
2018-01-14T15:22:02.684Z,-0.50
2018-01-14T15:24:30.288Z,-0.49
2018-01-14T15:26:57.923Z,-0.53
2018-01-14T15:29:25.531Z,-0.45
2018-01-14T15:31:53.127Z,-0.45
2018-01-14T15:34:20.961Z,-0.45
2018-01-14T15:36:48.594Z,-0.42
2018-01-14T15:39:16.189Z,-0.46
2018-01-14T15:41:43.818Z,-0.45
2018-01-14T15:44:11.424Z,-0.53
2018-01-14T15:46:39.079Z,-0.44
2018-01-14T15:49:06.681Z,-0.40
2018-01-14T15:51:34.850Z,-0.43
2018-01-14T15:54:02.446Z,-0.44
2018-01-14T15:56:30.040Z,-0.44
2018-01-14T15:58:57.667Z,-0.51
2018-01-14T16:01:25.278Z,-0.49
2018-01-14T16:03:52.912Z,-0.61
2018-01-14T16:06:20.550Z,-0.57
2018-01-14T16:08:48.313Z,-0.57
2018-01-14T16:11:15.932Z,-0.72
2018-01-14T16:13:43.538Z,-0.73
2018-01-14T16:16:11.134Z,-0.76
2018-01-14T16:18:38.798Z,-0.73
2018-01-14T16:21:06.446Z,-0.84
2018-01-14T16:23:34.077Z,-0.84
2018-01-14T16:26:01.659Z,-0.90
2018-01-14T16:28:29.489Z,-0.89
2018-01-14T16:30:57.307Z,-0.96
2018-01-14T16:33:25.025Z,-1.04
2018-01-14T16:35:52.739Z,-1.15
2018-01-14T16:38:20.436Z,-1.10
2018-01-14T16:40:48.095Z,-1.08
2018-01-14T16:43:15.726Z,-1.15
2018-01-14T16:45:43.525Z,-1.21
2018-01-14T16:48:11.267Z,-1.31
2018-01-14T16:50:38.926Z,-1.20
2018-01-14T16:53:06.590Z,-1.28
2018-01-14T16:55:35.146Z,-1.26
2018-01-14T16:58:02.835Z,-1.23
2018-01-14T17:00:30.463Z,-1.33
2018-01-14T17:02:58.093Z,-1.42
2018-01-14T17:05:25.807Z,-1.42
2018-01-14T17:07:53.578Z,-1.41
2018-01-14T17:10:21.350Z,-1.37
2018-01-14T17:12:48.942Z,-1.40
2018-01-14T17:15:16.600Z,-1.50
2018-01-14T17:17:46.043Z,-1.53
2018-01-14T17:20:13.635Z,-1.45
2018-01-14T17:22:41.307Z,-1.61
2018-01-14T17:25:09.027Z,-1.57
2018-01-14T17:27:36.662Z,-1.57
2018-01-14T17:30:04.249Z,-1.75
2018-01-14T17:32:31.855Z,-1.84
2018-01-14T17:34:59.551Z,-1.65
2018-01-14T17:37:27.139Z,-1.73
2018-01-14T17:39:54.722Z,-1.68
2018-01-14T17:42:22.307Z,-1.85
2018-01-14T17:44:49.995Z,-1.80
2018-01-14T17:47:17.584Z,-1.78
2018-01-14T17:49:45.186Z,-1.85
2018-01-14T17:52:12.850Z,-1.80
2018-01-14T17:54:40.519Z,-1.76
2018-01-14T17:57:08.175Z,-1.75
2018-01-14T17:59:35.839Z,-1.82
2018-01-14T18:02:03.427Z,-1.70
2018-01-14T18:04:31.075Z,-1.87
2018-01-14T18:06:58.671Z,-1.75
2018-01-14T18:09:27.077Z,-1.75
2018-01-14T18:11:54.768Z,-1.70
2018-01-14T18:14:22.369Z,-1.81
2018-01-14T18:16:59.016Z,-1.84
2018-01-14T18:19:26.711Z,-1.84
2018-01-14T18:21:54.306Z,-1.83
2018-01-14T18:24:21.892Z,-1.81
2018-01-14T18:26:49.533Z,-1.92
2018-01-14T18:29:17.155Z,-1.87
2018-01-14T18:31:44.783Z,-1.85
2018-01-14T18:34:12.484Z,-1.94
2018-01-14T18:36:40.103Z,-1.93
2018-01-14T18:39:07.774Z,-1.89
2018-01-14T18:41:35.379Z,-1.88
2018-01-14T18:44:03.049Z,-1.85
2018-01-14T18:46:30.678Z,-1.96
2018-01-14T18:48:58.271Z,-1.92
2018-01-14T18:51:25.890Z,-1.94
2018-01-14T18:53:53.551Z,-1.89
2018-01-14T18:56:23.213Z,-1.89
2018-01-14T18:58:53.384Z,-1.98
2018-01-14T19:01:23.230Z,-1.98
2018-01-14T19:03:50.863Z,-1.85
2018-01-14T19:06:18.520Z,-1.88
2018-01-14T19:08:46.948Z,-2.02
2018-01-14T19:11:14.571Z,-1.88
2018-01-14T19:13:42.246Z,-1.97
2018-01-14T19:16:09.919Z,-1.97
2018-01-14T19:18:37.571Z,-2.00
2018-01-14T19:21:05.159Z,-2.08
2018-01-14T19:23:32.746Z,-2.14
2018-01-14T19:26:00.358Z,-2.03
2018-01-14T19:28:28.030Z,-2.06
2018-01-14T19:30:55.713Z,-2.05
2018-01-14T19:33:23.324Z,-2.13
2018-01-14T19:35:50.914Z,-2.12
2018-01-14T19:38:18.655Z,-2.21
2018-01-14T19:40:46.259Z,-2.16
2018-01-14T19:43:13.985Z,-2.06
2018-01-14T19:45:41.583Z,-2.13
2018-01-14T19:48:09.242Z,-2.13
2018-01-14T19:50:36.838Z,-2.23
2018-01-14T19:53:04.473Z,-2.28
2018-01-14T19:55:33.188Z,-2.31
2018-01-14T19:58:01.027Z,-2.26
2018-01-14T20:00:28.664Z,-2.29
2018-01-14T20:02:56.256Z,-2.24
2018-01-14T20:05:24.730Z,-2.35
2018-01-14T20:07:52.320Z,-2.33
2018-01-14T20:10:20.069Z,-2.37
2018-01-14T20:12:47.658Z,-2.36
2018-01-14T20:15:15.287Z,-2.31
2018-01-14T20:17:44.028Z,-2.25
2018-01-14T20:20:11.655Z,-2.19
2018-01-14T20:22:39.383Z,-2.27
2018-01-14T20:25:07.059Z,-2.30
2018-01-14T20:27:34.799Z,-2.15
2018-01-14T20:30:02.513Z,-2.25
2018-01-14T20:32:31.376Z,-2.14
2018-01-14T20:35:00.270Z,-2.08
2018-01-14T20:37:28.401Z,-2.05
2018-01-14T20:39:57.359Z,-2.06
2018-01-14T20:42:27.023Z,-2.02
2018-01-14T20:44:55.582Z,-2.05
2018-01-14T20:47:23.244Z,-2.01
2018-01-14T20:49:50.980Z,-2.04
2018-01-14T20:52:18.595Z,-2.06
2018-01-14T20:54:46.231Z,-2.03
2018-01-14T20:57:13.820Z,-2.10
2018-01-14T20:59:43.340Z,-2.05
2018-01-14T21:02:11.167Z,-1.96
2018-01-14T21:04:38.902Z,-2.02
2018-01-14T21:07:06.510Z,-2.01
2018-01-14T21:09:34.367Z,-1.99
2018-01-14T21:12:02.033Z,-1.99
2018-01-14T21:14:30.016Z,-2.06
2018-01-14T21:16:57.741Z,-2.04
2018-01-14T21:19:25.577Z,-2.04
2018-01-14T21:21:55.286Z,-2.07
2018-01-14T21:24:23.340Z,-1.97
2018-01-14T21:26:51.136Z,-1.96
2018-01-14T21:29:18.970Z,-1.98
2018-01-14T21:31:47.844Z,-1.96
2018-01-14T21:34:15.566Z,-2.05
2018-01-14T21:36:44.360Z,-2.00
2018-01-14T21:39:12.728Z,-2.06
2018-01-14T21:41:44.406Z,-2.07
2018-01-14T21:44:14.090Z,-1.98
2018-01-14T21:46:43.839Z,-1.97
2018-01-14T21:49:14.500Z,-1.90
2018-01-14T21:51:44.788Z,-1.90
2018-01-14T21:54:12.575Z,-1.90
2018-01-14T21:56:40.166Z,-1.99
2018-01-14T21:59:08.039Z,-1.90
2018-01-14T22:01:35.676Z,-1.87
2018-01-14T22:04:03.350Z,-1.96
2018-01-14T22:06:32.735Z,-1.83
2018-01-14T22:09:00.395Z,-1.84
2018-01-14T22:11:28.091Z,-1.87
2018-01-14T22:13:55.688Z,-1.82
2018-01-14T22:16:23.387Z,-1.87
2018-01-14T22:18:50.975Z,-1.94
2018-01-14T22:21:18.639Z,-2.05
2018-01-14T22:23:46.320Z,-2.12
2018-01-14T22:26:14.034Z,-2.15
2018-01-14T22:28:41.730Z,-2.21
2018-01-14T22:31:09.921Z,-2.26
2018-01-14T22:33:37.514Z,-2.31
2018-01-14T22:36:05.108Z,-2.25
2018-01-14T22:38:32.696Z,-2.25
2018-01-14T22:41:00.282Z,-2.40
2018-01-14T22:43:27.914Z,-2.47
2018-01-14T22:45:55.504Z,-2.41
2018-01-14T22:48:23.091Z,-2.44
2018-01-14T22:50:50.867Z,-2.42
2018-01-14T22:53:18.536Z,-2.52
2018-01-14T22:55:46.197Z,-2.42
2018-01-14T22:58:13.863Z,-2.54
2018-01-14T23:00:41.450Z,-2.59
2018-01-14T23:03:09.079Z,-2.62
2018-01-14T23:05:36.692Z,-2.68
2018-01-14T23:08:04.279Z,-2.71
2018-01-14T23:10:31.862Z,-2.63
2018-01-14T23:12:59.486Z,-2.63
2018-01-14T23:15:27.106Z,-2.63
2018-01-14T23:17:54.732Z,-2.69
2018-01-14T23:20:22.319Z,-2.73
2018-01-14T23:22:49.946Z,-2.66
2018-01-14T23:25:17.531Z,-2.74
2018-01-14T23:27:45.118Z,-2.76
2018-01-14T23:30:12.762Z,-2.76
2018-01-14T23:32:40.379Z,-2.77
2018-01-14T23:35:07.967Z,-2.67
2018-01-14T23:37:35.595Z,-2.69
2018-01-14T23:40:03.182Z,-2.56
2018-01-14T23:42:30.811Z,-2.43
2018-01-14T23:44:58.396Z,-2.37
2018-01-14T23:47:26.095Z,-2.29
2018-01-14T23:49:53.718Z,-2.23
2018-01-14T23:52:21.314Z,-2.10
2018-01-14T23:54:48.939Z,-2.14
2018-01-14T23:57:16.531Z,-2.07
2018-01-14T23:59:44.154Z,-2.16
